Time;durP1;ratioP1;P1;durP2;ratioP2;P2;SDS_P1;SDS_P2;PMS_P1;PMS_P2;Temp;Humidity;BMP_temperature;BMP_pressure;BME280_temperature;BME280_humidity;BME280_pressure;Samples;Min_cycle;Max_cycle;Signal;HPM_P1;HPM_P2
2022/12/05 00:00:51;;;;;;;31.57;22.30;;;6.40;95.20;;;6.19;85.99;97603.53;5031739;28;20494;-74
2022/12/05 00:03:18;;;;;;;28.23;21.67;;;6.30;95.70;;;5.57;86.02;97525.56;5030979;28;21035;-81
2022/12/05 00:05:45;;;;;;;27.20;21.70;;;6.30;95.70;;;6.09;86.40;97609.25;5029157;28;20478;-76
2022/12/05 00:08:13;;;;;;;31.43;22.93;;;6.20;96.50;;;6.02;86.56;97616.44;5032685;28;20504;-71
2022/12/05 00:10:42;;;;;;;29.40;22.23;;;6.20;96.90;;;5.97;87.02;97608.94;5031782;28;20461;-79
2022/12/05 00:13:10;;;;;;;30.80;22.20;;;6.20;96.90;;;5.99;87.44;97616.78;5047218;28;20458;-72
2022/12/05 00:15:38;;;;;;;33.87;24.00;;;6.10;97.70;;;5.92;87.55;97617.56;5028207;28;20446;-72
2022/12/05 00:18:06;;;;;;;34.33;22.97;;;6.10;98.60;;;5.77;88.04;97603.44;5021187;28;20504;-74
2022/12/05 00:20:34;;;;;;;30.50;21.50;;;6.10;98.70;;;5.66;89.66;97616.34;5027613;28;20459;-74
2022/12/05 00:23:01;;;;;;;30.10;22.30;;;6.00;99.90;;;5.66;89.45;97621.69;5032671;28;20457;-75
2022/12/05 00:25:28;;;;;;;39.53;23.93;;;5.90;99.90;;;5.92;88.63;97622.13;5030498;28;20496;-77
2022/12/05 00:27:57;;;;;;;32.60;22.80;;;6.00;99.90;;;5.73;89.79;97627.13;5028064;28;20948;-81
2022/12/05 00:30:24;;;;;;;31.90;23.03;;;6.00;99.90;;;5.75;90.16;97625.06;5030804;28;20462;-76
2022/12/05 00:32:52;;;;;;;29.40;22.93;;;5.90;99.90;;;5.70;90.04;97632.06;5028025;28;20968;-73
2022/12/05 00:35:19;;;;;;;35.40;24.20;;;5.90;99.90;;;5.67;90.49;97634.06;5045471;28;20459;-80
2022/12/05 00:37:46;;;;;;;33.57;23.10;;;5.90;99.90;;;5.80;90.12;97632.53;5030982;28;20536;-76
2022/12/05 00:40:14;;;;;;;35.23;22.30;;;5.90;99.90;;;5.71;89.90;97629.16;5030478;28;20513;-82
2022/12/05 00:42:41;;;;;;;34.97;23.10;;;5.90;99.90;;;5.67;90.37;97628.72;5029768;28;20461;-73
2022/12/05 00:45:11;;;;;;;30.93;22.73;;;5.90;99.90;;;5.61;90.95;97637.53;5038823;28;20455;-75
2022/12/05 00:47:38;;;;;;;33.07;23.17;;;5.80;99.90;;;5.64;90.75;97637.16;5021056;28;20940;-71
2022/12/05 00:50:07;;;;;;;32.07;23.30;;;5.80;99.90;;;5.62;90.58;97639.19;5027503;28;20458;-76
2022/12/05 00:52:34;;;;;;;30.83;22.37;;;5.90;99.90;;;5.66;91.27;97642.31;5026210;28;20462;-71
2022/12/05 00:55:02;;;;;;;35.53;23.50;;;5.90;99.90;;;5.44;91.31;97646.88;5029179;28;20873;-80
2022/12/05 00:57:29;;;;;;;34.23;23.77;;;5.80;99.90;;;5.62;91.47;97659.81;5021712;28;20498;-76
2022/12/05 00:59:56;;;;;;;33.97;23.80;;;5.80;99.90;;;5.63;91.05;97654.25;5022385;28;20850;-73
2022/12/05 01:02:24;;;;;;;37.53;24.87;;;5.80;99.90;;;5.57;91.40;97638.94;5027288;28;20455;-73
2022/12/05 01:04:52;;;;;;;34.47;25.67;;;5.80;99.90;;;5.66;91.16;97653.03;5026544;28;20446;-74
2022/12/05 01:07:19;;;;;;;34.50;24.53;;;5.90;99.90;;;5.70;91.13;97656.19;5027791;28;20890;-74
2022/12/05 01:09:47;;;;;;;38.13;25.30;;;5.80;99.90;;;5.70;91.64;97661.53;5029020;28;20468;-73
2022/12/05 01:12:14;;;;;;;32.50;24.10;;;5.90;99.90;;;5.79;91.19;97663.03;5030414;28;20475;-71
2022/12/05 01:14:41;;;;;;;40.17;25.93;;;5.90;99.90;;;5.66;91.71;97669.13;5028033;28;20454;-72
2022/12/05 01:17:09;;;;;;;37.37;24.90;;;5.90;99.90;;;5.71;91.84;97669.38;5026499;28;20442;-76
2022/12/05 01:19:38;;;;;;;37.30;24.30;;;5.90;99.90;;;5.54;91.95;97666.16;5029832;28;20970;-77
2022/12/05 01:22:05;;;;;;;38.23;25.33;;;5.80;99.90;;;5.64;91.81;97682.72;5025804;28;20525;-76
2022/12/05 01:24:32;;;;;;;38.70;25.37;;;5.80;99.90;;;5.62;92.55;97676.72;5029298;28;20446;-76
2022/12/05 01:26:59;;;;;;;36.47;24.30;;;5.80;99.90;;;5.61;92.83;97677.75;5029938;28;20482;-78
2022/12/05 01:29:27;;;;;;;41.57;25.57;;;5.80;99.90;;;5.65;92.17;97684.38;5030803;28;20451;-73
2022/12/05 01:31:54;;;;;;;39.70;26.30;;;5.90;99.90;;;5.57;92.35;97692.56;5021473;28;20451;-72
2022/12/05 01:34:22;;;;;;;40.83;25.37;;;5.80;99.90;;;5.64;92.43;97688.06;5031202;28;20462;-72
2022/12/05 01:36:51;;;;;;;46.27;26.13;;;5.80;99.90;;;5.59;92.06;97685.16;5031789;28;20446;-73
2022/12/05 01:39:18;;;;;;;41.37;25.27;;;5.80;99.90;;;5.16;91.66;97623.50;5043860;28;20485;-72
2022/12/05 01:41:48;;;;;;;40.73;27.77;;;5.80;99.90;;;5.79;91.64;97696.06;5024659;28;20507;-70
2022/12/05 01:45:03;;;;;;;39.33;26.43;;;5.90;99.90;;;5.76;90.99;97700.97;5027409;28;20494;-77
2022/12/05 01:47:35;;;;;;;38.53;25.10;;;5.90;99.90;;;5.75;90.85;97705.50;5039925;28;20463;-71
2022/12/05 01:50:04;;;;;;;38.83;26.80;;;5.90;99.90;;;5.82;90.86;97705.56;5036174;28;20466;-75
2022/12/05 01:52:34;;;;;;;33.50;25.30;;;5.90;99.90;;;5.66;90.72;97715.50;5028832;28;20975;-71
2022/12/05 01:55:10;;;;;;;38.40;25.53;;;5.90;99.90;;;5.66;90.91;97717.38;5025608;28;20501;-70
2022/12/05 01:57:37;;;;;;;35.80;26.90;;;5.80;99.90;;;5.51;91.15;97725.47;5028931;28;20519;-70
2022/12/05 02:00:12;;;;;;;38.97;25.87;;;5.80;99.90;;;5.58;91.69;97726.38;5025509;28;20785;-82
2022/12/05 02:02:44;;;;;;;38.97;25.23;;;5.80;99.90;;;5.43;91.75;97706.84;5023819;28;20512;-74
2022/12/05 02:05:17;;;;;;;37.63;25.97;;;5.80;99.90;;;5.67;91.15;97729.75;5023328;28;20458;-72
2022/12/05 02:07:47;;;;;;;40.50;26.30;;;5.90;99.90;;;5.59;91.22;97735.22;5028900;28;20520;-77
2022/12/05 02:10:15;;;;;;;37.20;26.33;;;5.80;99.90;;;5.59;91.07;97727.19;5029954;28;20844;-74
2022/12/05 02:12:43;;;;;;;35.50;25.70;;;5.80;99.90;;;5.56;90.96;97724.91;5044018;28;20508;-71
2022/12/05 02:15:31;;;;;;;32.13;22.07;;;5.80;99.90;;;5.48;90.80;97731.19;5029640;28;20969;-74
2022/12/05 02:18:16;;;;;;;30.67;22.97;;;5.80;99.90;;;5.56;90.71;97731.09;5026051;28;20959;-75
2022/12/05 02:21:03;;;;;;;33.50;23.00;;;5.80;99.90;;;5.53;90.58;97720.72;5043172;28;20461;-72
2022/12/05 02:24:06;;;;;;;34.53;23.10;;;5.80;99.90;;;5.51;90.68;97741.53;5041145;28;20447;-74
2022/12/05 02:27:00;;;;;;;31.37;23.07;;;5.80;99.90;;;5.70;89.51;97741.97;5021513;28;20476;-74
2022/12/05 02:30:02;;;;;;;35.50;23.03;;;5.80;99.90;;;5.34;90.08;97698.91;5026435;28;20469;-70
2022/12/05 02:32:41;;;;;;;30.53;21.33;;;5.80;99.90;;;5.85;88.65;97758.81;5022369;28;20508;-72
2022/12/05 02:35:23;;;;;;;29.13;19.87;;;5.90;99.90;;;5.67;88.45;97760.06;5026206;28;20465;-70
2022/12/05 02:37:58;;;;;;;27.27;21.50;;;5.90;99.80;;;5.47;88.89;97759.03;5029346;28;20459;-71
2022/12/05 02:40:31;;;;;;;31.87;20.50;;;5.80;98.30;;;5.47;89.19;97773.25;5030681;28;20446;-69
2022/12/05 02:43:05;;;;;;;28.43;20.23;;;5.80;99.30;;;5.42;89.63;97764.13;5028236;28;20488;-73
2022/12/05 02:45:36;;;;;;;28.70;20.40;;;5.80;99.20;;;5.37;89.46;97770.84;5022318;28;20981;-71
2022/12/05 02:48:05;;;;;;;27.17;19.70;;;5.70;99.90;;;5.31;90.26;97770.81;5028078;28;21524;-74
2022/12/05 02:50:36;;;;;;;32.43;22.93;;;5.60;99.90;;;5.28;89.80;97769.31;5028564;28;20465;-75
2022/12/05 02:53:08;;;;;;;30.93;22.20;;;5.60;99.90;;;5.22;90.51;97775.41;5046240;28;20471;-70
2022/12/05 02:55:36;;;;;;;24.57;18.63;;;5.60;99.90;;;5.41;90.19;97775.88;5027882;28;20454;-73
2022/12/05 02:58:08;;;;;;;28.13;19.93;;;5.60;99.90;;;5.42;89.15;97785.56;5031094;28;20454;-71
2022/12/05 03:00:42;;;;;;;25.77;18.80;;;5.70;99.90;;;5.08;89.48;97775.28;5029294;28;20493;-81
2022/12/05 03:03:15;;;;;;;26.97;19.63;;;5.60;98.80;;;4.74;91.32;97733.81;5027096;28;20515;-74
2022/12/05 03:05:49;;;;;;;25.27;17.37;;;5.50;99.90;;;5.07;89.99;97784.28;5026768;28;20469;-72
2022/12/05 03:08:22;;;;;;;24.50;16.33;;;5.50;99.90;;;4.82;91.28;97792.63;5044926;28;20454;-71
2022/12/05 03:10:53;;;;;;;21.00;15.27;;;5.40;99.90;;;4.84;90.77;97805.00;5027626;28;20465;-73
2022/12/05 03:13:25;;;;;;;22.57;16.87;;;5.30;99.90;;;4.72;91.47;97802.75;5036860;28;20461;-71
2022/12/05 03:16:00;;;;;;;23.60;16.77;;;5.30;99.90;;;4.85;91.28;97801.31;5023067;28;20465;-70
2022/12/05 03:18:32;;;;;;;25.07;17.20;;;5.30;99.90;;;4.95;90.31;97800.00;5025255;28;20518;-75
2022/12/05 03:21:04;;;;;;;23.63;16.30;;;5.30;99.90;;;5.02;90.72;97805.44;5026736;28;20503;-73
2022/12/05 03:23:36;;;;;;;20.77;16.00;;;5.30;99.90;;;4.98;90.00;97812.19;5031216;28;20441;-73
2022/12/05 03:26:13;;;;;;;25.20;16.90;;;5.30;99.90;;;4.94;90.96;97802.88;5030818;28;20442;-77
2022/12/05 03:28:55;;;;;;;23.40;16.87;;;5.30;99.90;;;4.95;90.28;97797.31;5032425;28;20462;-71
2022/12/05 03:31:35;;;;;;;22.00;16.80;;;5.30;99.90;;;4.91;89.75;97795.19;5025638;28;20451;-72
2022/12/05 03:34:06;;;;;;;19.03;16.23;;;5.30;99.90;;;4.88;90.07;97785.72;5033474;28;20452;-75
2022/12/05 03:36:39;;;;;;;17.80;14.57;;;5.30;99.90;;;4.82;90.63;97765.84;5033947;28;20445;-73
2022/12/05 03:39:15;;;;;;;20.93;15.23;;;5.20;99.90;;;4.89;90.20;97759.75;5032618;28;20859;-71
2022/12/05 03:41:53;;;;;;;19.97;16.83;;;5.10;99.90;;;4.88;90.02;97760.75;5032505;28;20457;-75
2022/12/05 03:44:29;;;;;;;22.70;16.40;;;5.10;99.90;;;4.89;89.68;97765.94;5029213;28;20458;-73
2022/12/05 03:47:01;;;;;;;20.80;17.00;;;5.20;99.90;;;4.84;90.24;97800.44;5023548;28;20482;-74
2022/12/05 03:49:35;;;;;;;18.60;15.17;;;5.20;99.90;;;4.98;88.48;97812.19;5032885;28;20458;-75
2022/12/05 03:52:08;;;;;;;17.80;14.67;;;5.20;99.90;;;4.92;88.64;97802.22;5029681;28;20897;-79
2022/12/05 03:54:39;;;;;;;16.13;13.77;;;5.20;97.80;;;4.86;88.28;97808.31;5029225;28;20450;-70
2022/12/05 03:57:15;;;;;;;16.90;13.47;;;5.20;97.40;;;4.64;87.96;97778.78;5034935;28;20462;-72
2022/12/05 03:59:48;;;;;;;18.63;13.17;;;5.20;96.00;;;4.72;87.38;97789.38;5047928;28;20462;-71
2022/12/05 04:02:26;;;;;;;15.83;12.83;;;5.20;95.90;;;4.85;86.79;97812.00;5033847;28;20454;-75
2022/12/05 04:04:58;;;;;;;15.60;13.30;;;5.20;96.10;;;4.32;87.28;97753.97;5032985;28;20454;-76
2022/12/05 04:07:27;;;;;;;16.87;13.23;;;5.20;95.70;;;4.89;87.52;97832.88;5032761;28;20470;-72
2022/12/05 04:10:00;;;;;;;14.43;12.40;;;5.20;95.70;;;4.67;87.65;97831.94;5033595;28;20840;-70
2022/12/05 04:12:31;;;;;;;16.90;12.30;;;5.10;95.40;;;4.71;87.14;97848.47;5031500;28;20519;-74
2022/12/05 04:15:02;;;;;;;16.03;12.57;;;5.10;95.70;;;4.76;87.04;97846.06;5046022;28;20472;-74
2022/12/05 04:17:35;;;;;;;16.73;13.00;;;5.10;96.00;;;4.50;88.83;97853.50;5041843;28;20463;-75
2022/12/05 04:22:51;;;;;;;14.73;11.90;;;4.90;97.00;;;4.25;89.88;97867.03;5042165;28;20456;-71
2022/12/05 04:25:32;;;;;;;16.53;11.30;;;4.80;96.50;;;4.32;89.93;97860.97;5041718;28;20446;-75
2022/12/05 04:28:14;;;;;;;15.90;12.00;;;4.80;97.20;;;4.35;89.92;97866.00;5031463;28;20602;-73
2022/12/05 04:30:49;;;;;;;13.23;11.60;;;4.80;98.00;;;4.31;89.25;97875.34;5021020;28;20463;-71
2022/12/05 04:33:30;;;;;;;13.90;11.33;;;4.80;97.10;;;4.15;89.42;97873.66;5033754;28;20445;-79
2022/12/05 04:36:04;;;;;;;16.20;11.20;;;4.70;96.90;;;4.22;88.23;97870.09;5035803;28;20460;-72
2022/12/05 04:38:40;;;;;;;12.63;10.07;;;4.70;96.40;;;4.11;89.17;97870.50;5031424;28;20474;-78
2022/12/05 04:41:12;;;;;;;13.73;10.60;;;4.70;96.70;;;4.21;88.25;97863.06;5026472;28;20454;-72
2022/12/05 04:43:42;;;;;;;13.33;10.63;;;4.70;96.40;;;4.35;88.02;97882.03;5023709;28;20458;-74
2022/12/05 04:46:13;;;;;;;12.77;9.67;;;4.70;96.70;;;4.22;88.73;97888.81;5042358;28;20458;-75
2022/12/05 04:48:47;;;;;;;13.70;10.00;;;4.70;96.40;;;4.29;87.61;97878.22;5029522;28;20464;-76
2022/12/05 04:51:18;;;;;;;13.13;9.47;;;4.70;96.10;;;4.19;88.25;97894.53;5043729;28;20453;-77
2022/12/05 04:53:50;;;;;;;10.77;9.40;;;4.70;95.70;;;3.94;90.36;97891.13;5025156;28;20800;-75
2022/12/05 04:56:20;;;;;;;10.67;9.60;;;4.50;97.70;;;4.02;88.60;97882.22;5038878;28;20537;-70
2022/12/05 04:58:47;;;;;;;11.17;8.93;;;4.50;97.50;;;4.00;89.38;97886.94;5026522;28;20461;-74
2022/12/05 05:01:19;;;;;;;12.10;9.30;;;4.40;98.00;;;3.78;89.51;97873.38;5021687;28;20953;-72
2022/12/05 05:03:53;;;;;;;11.07;9.07;;;4.50;97.90;;;4.06;89.04;97894.25;5028954;28;21004;-72
2022/12/05 05:06:20;;;;;;;11.70;9.47;;;4.50;98.10;;;4.15;89.10;97885.16;5028738;28;20972;-81
2022/12/05 05:08:50;;;;;;;9.33;8.00;;;4.50;98.00;;;4.15;87.92;97892.38;5037950;28;20462;-73
2022/12/05 05:11:21;;;;;;;9.50;8.00;;;4.50;97.10;;;3.85;88.32;97852.94;5026843;28;20849;-76
2022/12/05 05:13:48;;;;;;;10.27;8.40;;;4.50;96.50;;;4.02;88.30;97903.63;5041658;28;20512;-70
2022/12/05 05:16:18;;;;;;;10.30;8.00;;;4.50;96.00;;;4.16;87.50;97900.19;5026563;28;20458;-74
2022/12/05 05:18:46;;;;;;;9.80;8.20;;;4.50;96.00;;;4.23;87.60;97911.88;5031011;28;20463;-72
2022/12/05 05:21:21;;;;;;;11.27;8.07;;;4.50;95.40;;;4.09;87.19;97910.78;5027276;28;20464;-74
2022/12/05 05:23:49;;;;;;;10.03;7.83;;;4.50;95.80;;;4.03;86.92;97892.75;5027430;28;20564;-71
2022/12/05 05:26:17;;;;;;;10.77;8.80;;;4.50;95.60;;;4.05;87.49;97911.31;5028317;28;20460;-72
2022/12/05 05:28:45;;;;;;;10.17;8.20;;;4.40;95.20;;;4.09;86.82;97915.28;5028178;28;20474;-76
2022/12/05 05:31:16;;;;;;;10.97;6.97;;;4.50;94.40;;;4.05;86.41;97912.13;5027000;28;20468;-71
2022/12/05 05:33:43;;;;;;;8.60;6.73;;;4.40;93.90;;;4.05;86.42;97904.13;5028245;28;20493;-71
2022/12/05 05:36:13;;;;;;;10.30;7.83;;;4.50;94.20;;;4.23;85.85;97917.22;5024993;28;20470;-78
2022/12/05 05:38:44;;;;;;;8.43;7.00;;;4.50;94.00;;;4.25;84.83;97904.50;5023388;28;20520;-79
2022/12/05 05:41:14;;;;;;;10.13;7.47;;;4.60;93.70;;;4.07;86.08;97917.31;5025140;28;20465;-71
2022/12/05 05:43:41;;;;;;;13.03;7.87;;;4.40;94.30;;;3.74;86.16;97842.66;5042033;28;20805;-83
2022/12/05 05:46:09;;;;;;;8.97;7.27;;;4.50;93.90;;;3.88;86.04;97899.88;5024588;28;20515;-69
2022/12/05 05:48:37;;;;;;;9.10;7.27;;;4.50;93.10;;;3.82;86.52;97920.13;5043123;28;20508;-71
2022/12/05 05:51:06;;;;;;;9.17;7.13;;;4.30;93.30;;;3.81;85.79;97913.09;5041158;28;20850;-72
2022/12/05 05:53:35;;;;;;;10.53;7.70;;;4.30;93.20;;;3.93;84.74;97906.38;5026699;28;20454;-72
2022/12/05 05:56:05;;;;;;;8.77;7.40;;;4.30;92.40;;;4.07;85.10;97917.31;5020326;28;20918;-75
2022/12/05 05:58:33;;;;;;;8.43;7.10;;;4.40;92.70;;;3.75;84.31;97871.06;5024252;28;20450;-72
2022/12/05 06:01:04;;;;;;;9.10;7.40;;;4.40;92.70;;;4.11;84.75;97926.66;5028230;28;20450;-72
2022/12/05 06:03:31;;;;;;;9.67;8.50;;;4.40;92.20;;;3.90;86.41;97919.25;5023672;28;20458;-73
2022/12/05 06:06:00;;;;;;;12.27;8.70;;;4.40;93.30;;;3.93;85.64;97925.06;5026446;28;20903;-73
2022/12/05 06:08:30;;;;;;;12.57;9.30;;;4.40;92.90;;;3.85;84.76;97922.44;5030692;28;20473;-74
2022/12/05 06:10:58;;;;;;;14.70;9.57;;;4.30;92.80;;;3.71;85.48;97917.81;5029934;28;20473;-77
2022/12/05 06:13:26;;;;;;;14.70;10.90;;;4.30;93.00;;;3.75;85.55;97933.34;5029520;28;20488;-71
2022/12/05 06:15:54;;;;;;;14.23;9.73;;;4.20;93.10;;;3.61;86.98;97948.28;5025506;28;20850;-75
2022/12/05 06:18:21;;;;;;;17.60;12.30;;;4.10;93.40;;;3.82;87.15;97953.03;5028031;28;20467;-70
2022/12/05 06:20:53;;;;;;;18.83;11.80;;;4.20;95.70;;;3.43;86.92;97958.34;5028047;28;20556;-73
2022/12/05 06:23:21;;;;;;;18.73;12.20;;;4.10;93.40;;;3.29;87.85;97952.69;5044668;28;20461;-75
2022/12/05 06:25:48;;;;;;;18.97;13.03;;;3.90;94.30;;;3.32;88.45;97949.69;5034524;28;20505;-72
2022/12/05 06:28:16;;;;;;;20.60;11.60;;;3.90;95.00;;;3.24;88.24;97955.03;5035378;28;20484;-70
2022/12/05 06:30:45;;;;;;;20.13;12.37;;;3.80;94.80;;;3.11;88.07;97960.91;5032338;28;20457;-73
2022/12/05 06:33:13;;;;;;;18.40;11.77;;;3.80;94.60;;;3.60;87.76;97954.63;5036375;28;20481;-73
2022/12/05 06:35:40;;;;;;;20.97;11.97;;;4.00;97.00;;;3.97;87.05;97961.13;5032073;28;20531;-68
2022/12/05 06:38:08;;;;;;;21.00;12.83;;;4.20;96.60;;;3.83;85.35;97967.22;5046509;28;20457;-73
2022/12/05 06:40:39;;;;;;;20.50;13.47;;;4.20;93.20;;;3.72;85.19;97967.63;5034137;28;20461;-73
2022/12/05 06:43:07;;;;;;;19.73;12.70;;;4.20;92.90;;;3.87;85.28;97973.06;5026330;28;20468;-72
2022/12/05 06:45:34;;;;;;;25.63;13.43;;;4.10;93.00;;;3.95;83.72;97970.34;5036151;28;20437;-75
2022/12/05 06:48:02;;;;;;;23.20;13.33;;;4.20;92.50;;;3.76;83.41;97974.28;5027554;28;20474;-74
2022/12/05 06:50:30;;;;;;;20.63;13.40;;;4.20;91.30;;;3.35;84.09;97973.38;5045936;28;20444;-70
2022/12/05 06:52:57;;;;;;;16.77;11.67;;;4.00;91.20;;;3.15;85.10;97980.09;5029424;28;21186;-78
2022/12/05 06:55:24;;;;;;;23.37;12.67;;;3.80;91.90;;;3.40;85.00;97987.03;5049179;28;20457;-70
2022/12/05 06:57:52;;;;;;;20.83;11.77;;;3.70;92.20;;;3.46;83.65;97977.53;5044105;28;20466;-72
2022/12/05 07:03:03;;;;;;;17.90;12.63;;;3.80;91.50;;;3.55;83.69;97989.00;4983701;28;20447;-71
2022/12/05 07:05:30;;;;;;;17.50;11.87;;;3.80;92.20;;;3.31;84.78;97980.06;5024906;28;20962;-69
2022/12/05 07:07:57;;;;;;;18.40;11.30;;;3.70;92.00;;;3.54;83.71;97974.00;5032619;28;20636;-69
2022/12/05 07:10:26;;;;;;;17.57;11.53;;;3.80;92.20;;;3.55;82.92;97989.00;5038207;28;20503;-79
2022/12/05 07:12:53;;;;;;;16.90;12.10;;;3.90;91.30;;;3.60;82.90;97994.69;5045615;28;20539;-73
2022/12/05 07:15:21;;;;;;;18.40;12.60;;;3.90;91.20;;;3.34;83.95;97992.25;5027981;28;20472;-74
2022/12/05 07:17:48;;;;;;;19.07;11.97;;;3.80;91.40;;;3.39;84.15;97979.22;5032057;28;20480;-72
2022/12/05 07:20:17;;;;;;;21.40;11.93;;;3.80;92.00;;;3.83;82.97;97999.28;5034419;28;20456;-74
2022/12/05 07:22:45;;;;;;;23.07;14.70;;;3.90;91.60;;;3.60;82.30;98000.03;5038000;28;20456;-71
2022/12/05 07:25:12;;;;;;;20.50;13.23;;;4.00;90.80;;;3.66;81.99;97988.66;5025850;28;20530;-71
2022/12/05 07:27:39;;;;;;;20.67;13.63;;;4.00;91.20;;;3.71;81.33;98014.03;5024626;28;20549;-71
2022/12/05 07:30:09;;;;;;;22.30;13.23;;;4.00;90.20;;;3.85;81.15;97999.94;5024281;28;20934;-72
2022/12/05 07:32:36;;;;;;;21.93;13.20;;;4.10;89.50;;;3.47;81.00;98011.25;5026721;28;20480;-73
2022/12/05 07:35:03;;;;;;;21.80;13.60;;;4.00;88.40;;;3.39;81.77;98022.78;5035812;28;20453;-70
2022/12/05 07:37:34;;;;;;;18.90;13.17;;;3.90;89.50;;;3.74;80.73;98029.75;5023942;28;20461;-71
2022/12/05 07:40:02;;;;;;;25.30;14.27;;;3.90;90.10;;;3.94;79.76;98017.63;5023701;28;20469;-70
2022/12/05 07:42:31;;;;;;;18.73;12.57;;;4.10;89.10;;;3.95;78.85;98035.34;5019127;28;20508;-72
2022/12/05 07:44:59;;;;;;;20.47;12.97;;;4.20;87.50;;;3.70;79.82;98037.25;5023729;28;20473;-71
2022/12/05 07:47:26;;;;;;;21.43;12.83;;;4.00;87.40;;;3.67;80.62;98022.38;5021057;28;20474;-72
2022/12/05 07:49:55;;;;;;;21.90;13.70;;;4.00;88.20;;;3.74;80.10;98027.06;5023102;28;20507;-71
2022/12/05 07:52:22;;;;;;;21.07;13.00;;;4.00;88.50;;;3.64;79.61;98044.13;5020571;28;20469;-70
2022/12/05 07:54:51;;;;;;;19.47;12.30;;;4.00;87.10;;;3.55;80.37;98061.16;5019890;28;21039;-71
2022/12/05 07:57:19;;;;;;;22.47;13.33;;;4.00;87.00;;;3.79;79.09;98054.94;5023557;28;20458;-70
2022/12/05 07:59:46;;;;;;;18.87;12.07;;;4.10;86.60;;;3.75;79.63;98058.94;5023782;28;20477;-71
2022/12/05 08:02:13;;;;;;;21.70;12.73;;;4.10;87.00;;;3.96;79.68;98050.38;5021085;28;20465;-71
2022/12/05 08:04:40;;;;;;;19.43;13.30;;;4.10;87.10;;;3.78;79.83;98042.56;5022716;28;20680;-73
2022/12/05 08:07:10;;;;;;;18.57;12.63;;;4.20;87.10;;;3.56;80.00;98044.13;5041474;28;20451;-71
2022/12/05 08:09:38;;;;;;;18.57;12.20;;;4.10;86.90;;;3.59;80.65;98049.16;5019474;28;20515;-72
2022/12/05 08:12:07;;;;;;;20.77;13.17;;;4.00;87.60;;;3.73;80.40;98041.44;5021159;28;20465;-71
2022/12/05 08:14:36;;;;;;;22.73;12.57;;;4.00;88.00;;;3.61;80.82;98041.78;5033747;28;20461;-71
2022/12/05 08:17:03;;;;;;;20.03;12.30;;;4.00;88.00;;;3.75;80.63;98050.94;5039473;28;20817;-71
2022/12/05 08:19:31;;;;;;;20.33;13.57;;;4.00;88.60;;;3.83;80.07;98048.25;5022281;28;20783;-71
2022/12/05 08:21:58;;;;;;;17.93;13.10;;;4.10;87.80;;;4.05;79.65;98053.03;5021958;28;20477;-71
2022/12/05 08:24:25;;;;;;;20.47;13.00;;;4.20;87.50;;;3.93;79.97;98048.03;5025471;28;20458;-70
2022/12/05 08:26:52;;;;;;;20.33;13.40;;;4.20;87.30;;;3.91;79.59;98047.38;5016515;28;22105;-71
2022/12/05 08:29:22;;;;;;;17.40;12.63;;;4.30;86.90;;;4.16;79.26;98063.31;5035761;28;20493;-71
2022/12/05 08:31:51;;;;;;;22.63;13.83;;;4.30;87.40;;;4.15;78.57;98059.00;5017583;28;20462;-71
2022/12/05 08:34:20;;;;;;;22.20;14.13;;;4.40;86.50;;;4.01;79.79;98057.88;5021471;28;20515;-70
2022/12/05 08:36:47;;;;;;;20.53;15.00;;;4.40;86.70;;;3.45;80.00;98028.47;5020072;28;20478;-71
2022/12/05 08:39:18;;;;;;;22.50;14.47;;;4.30;86.30;;;3.81;80.62;98068.13;5019299;28;20784;-72
2022/12/05 08:41:46;;;;;;;21.23;14.00;;;4.20;87.20;;;4.04;79.20;98067.41;5021207;28;20457;-71
2022/12/05 08:44:15;;;;;;;22.93;13.40;;;4.30;87.40;;;3.93;79.93;98077.44;5014506;28;21057;-70
2022/12/05 08:46:47;;;;;;;23.17;12.93;;;4.30;87.00;;;4.35;78.82;98063.94;5015751;28;20477;-71
2022/12/05 08:49:17;;;;;;;20.70;13.00;;;4.50;87.40;;;4.20;78.27;98071.84;5036180;28;20477;-71
2022/12/05 08:51:45;;;;;;;21.73;13.90;;;4.60;85.40;;;4.49;78.20;98076.59;5023027;28;20446;-72
2022/12/05 08:54:13;;;;;;;22.37;13.50;;;4.70;85.90;;;4.52;77.19;98052.16;5039556;28;20458;-72
2022/12/05 08:56:40;;;;;;;21.33;13.87;;;4.80;85.20;;;4.76;76.60;98082.44;5017844;28;20459;-72
2022/12/05 08:59:08;;;;;;;20.97;13.70;;;4.90;85.10;;;5.22;76.12;98094.19;5021952;28;21028;-72
2022/12/05 09:01:37;;;;;;;21.97;13.20;;;5.20;85.20;;;5.28;73.99;98090.81;5021597;28;20473;-68
2022/12/05 09:04:07;;;;;;;24.93;14.53;;;5.40;83.20;;;4.97;74.47;98086.34;5019804;28;20550;-69
2022/12/05 09:06:35;;;;;;;21.00;13.47;;;5.40;82.50;;;5.06;75.77;98104.00;5018898;28;20462;-69
2022/12/05 09:09:06;;;;;;;18.87;13.23;;;5.30;83.00;;;4.99;75.88;98119.13;5025053;28;20485;-68
2022/12/05 09:11:37;;;;;;;19.67;13.00;;;5.30;83.10;;;4.67;76.82;98124.47;5034229;28;20449;-70
2022/12/05 09:14:04;;;;;;;24.67;14.87;;;5.10;83.60;;;4.49;77.93;98122.06;5019727;28;20978;-68
2022/12/05 09:16:34;;;;;;;19.97;14.00;;;4.90;84.20;;;4.61;77.40;98132.38;5021446;28;20462;-68
2022/12/05 09:19:02;;;;;;;19.87;13.63;;;4.90;84.60;;;4.48;78.50;98128.44;5022362;28;20473;-67
2022/12/05 09:21:32;;;;;;;22.03;14.10;;;4.80;84.60;;;4.59;77.90;98129.88;5019286;28;20820;-68
2022/12/05 09:24:00;;;;;;;22.73;14.33;;;4.80;85.60;;;4.59;77.75;98123.69;5018077;28;20485;-69
2022/12/05 09:26:29;;;;;;;20.43;13.83;;;4.80;85.30;;;4.44;77.93;98120.91;5019251;28;20473;-67
2022/12/05 09:28:57;;;;;;;22.97;15.03;;;4.70;85.40;;;4.51;78.41;98141.47;5018900;28;20503;-67
2022/12/05 09:31:28;;;;;;;23.07;12.80;;;4.80;85.30;;;4.33;78.34;98140.88;5019699;28;21140;-67
2022/12/05 09:33:55;;;;;;;20.00;13.57;;;4.70;85.00;;;4.26;78.20;98140.72;5017842;28;20584;-67
2022/12/05 09:36:25;;;;;;;21.53;14.67;;;4.70;85.00;;;4.19;79.17;98135.22;5021911;28;20461;-67
2022/12/05 09:38:55;;;;;;;22.93;14.47;;;4.60;85.80;;;4.45;79.46;98127.94;5036764;28;20449;-68
2022/12/05 09:44:59;;;;;;;19.00;13.17;;;4.80;85.50;;;4.71;77.75;98141.03;4979476;28;21041;-68
2022/12/05 09:47:38;;;;;;;21.77;14.97;;;4.90;85.70;;;4.78;77.60;98143.84;4968269;28;20540;-67
2022/12/05 09:50:19;;;;;;;21.80;14.10;;;4.90;85.30;;;4.63;77.99;98141.91;5004674;28;20458;-66
2022/12/05 09:53:11;;;;;;;23.10;15.10;;;4.90;85.60;;;4.19;78.29;98065.69;5022824;28;20516;-67
2022/12/05 09:55:47;;;;;;;21.13;14.20;;;4.90;85.70;;;4.14;78.39;98060.00;5019358;28;20523;-68
2022/12/05 09:58:25;;;;;;;24.43;14.50;;;4.90;85.60;;;4.46;79.14;98135.78;5038965;28;20532;-64
2022/12/05 10:01:00;;;;;;;24.60;13.90;;;4.80;85.70;;;4.63;78.56;98135.72;5018981;28;20465;-64
2022/12/05 10:03:38;;;;;;;28.20;15.47;;;4.80;86.10;;;4.62;78.66;98137.56;5020537;28;20820;-65
2022/12/05 10:06:16;;;;;;;22.10;14.60;;;4.80;86.50;;;4.43;79.74;98130.78;5021474;28;20464;-67
2022/12/05 10:09:08;;;;;;;20.63;13.00;;;4.80;86.70;;;4.77;78.88;98131.47;5028616;28;20466;-66
2022/12/05 10:11:44;;;;;;;24.73;14.63;;;4.90;86.60;;;4.56;78.81;98132.91;5023838;28;20478;-66
2022/12/05 10:14:23;;;;;;;23.43;14.07;;;4.90;86.60;;;4.75;77.81;98133.50;5033489;28;20450;-69
2022/12/05 10:16:55;;;;;;;22.37;15.00;;;5.00;86.30;;;4.78;78.91;98130.47;5036269;28;20450;-69
2022/12/05 10:19:27;;;;;;;24.70;16.00;;;5.00;86.10;;;4.82;78.04;98134.44;5029671;28;20545;-68
2022/12/05 10:22:01;;;;;;;24.27;15.47;;;5.00;86.20;;;4.59;78.99;98121.84;5027296;28;20464;-69
2022/12/05 10:24:33;;;;;;;21.00;14.47;;;5.00;85.90;;;4.49;79.56;98118.53;5018669;28;20916;-70
2022/12/05 10:27:07;;;;;;;24.67;15.00;;;4.90;86.10;;;4.72;78.77;98129.31;5022795;28;20450;-70
2022/12/05 10:29:40;;;;;;;22.13;14.47;;;4.90;86.60;;;4.77;78.68;98128.78;5021442;28;20917;-71
2022/12/05 10:32:17;;;;;;;24.43;14.37;;;5.10;85.90;;;4.99;78.42;98119.13;5029028;28;20519;-72
2022/12/05 10:34:45;;;;;;;22.27;14.80;;;5.20;86.30;;;4.82;77.54;98084.44;5022477;28;20481;-70
2022/12/05 10:37:17;;;;;;;20.50;14.07;;;5.30;85.70;;;5.13;77.36;98124.75;5037964;28;20452;-69
2022/12/05 10:39:46;;;;;;;21.50;14.50;;;5.40;85.10;;;4.93;76.55;98082.34;5025391;28;20520;-71
2022/12/05 10:42:19;;;;;;;21.00;14.33;;;5.40;85.00;;;5.49;76.45;98129.47;5019509;28;20462;-70
2022/12/05 10:44:48;;;;;;;18.67;13.60;;;5.50;84.90;;;5.74;75.07;98135.47;5025897;28;20450;-70